createdAt,value
2018-12-24T00:02:02.173Z,74.87
2018-12-24T00:04:26.694Z,74.43
2018-12-24T00:06:51.169Z,74.63
2018-12-24T00:09:15.714Z,76.38
2018-12-24T00:11:40.222Z,75.96
2018-12-24T00:14:04.730Z,75.58
2018-12-24T00:16:29.237Z,75.30
2018-12-24T00:18:53.720Z,76.10
2018-12-24T00:21:18.220Z,74.92
2018-12-24T00:23:42.722Z,75.72
2018-12-24T00:26:07.251Z,76.91
2018-12-24T00:28:37.114Z,76.55
2018-12-24T00:31:01.652Z,74.91
2018-12-24T00:33:26.138Z,76.39
2018-12-24T00:35:50.627Z,76.20
2018-12-24T00:38:15.132Z,75.39
2018-12-24T00:40:39.645Z,75.36
2018-12-24T00:43:15.512Z,75.81
2018-12-24T00:45:40.005Z,76.86
2018-12-24T00:48:04.479Z,76.80
2018-12-24T00:50:28.983Z,76.03
2018-12-24T00:52:53.464Z,76.30
2018-12-24T00:55:17.979Z,76.07
2018-12-24T00:57:42.458Z,76.45
2018-12-24T01:00:07.012Z,75.68
2018-12-24T01:02:31.515Z,75.71
2018-12-24T01:04:56.109Z,76.81
2018-12-24T01:07:20.603Z,77.13
2018-12-24T01:09:45.079Z,75.58
2018-12-24T01:12:09.584Z,75.12
2018-12-24T01:14:34.065Z,75.16
2018-12-24T01:16:58.593Z,74.92
2018-12-24T01:19:23.087Z,75.20
2018-12-24T01:24:23.149Z,75.94
2018-12-24T01:26:47.622Z,75.47
2018-12-24T01:29:12.132Z,75.41
2018-12-24T01:31:36.602Z,74.26
2018-12-24T01:34:01.105Z,75.28
2018-12-24T01:36:25.599Z,76.70
2018-12-24T01:38:50.093Z,76.47
2018-12-24T01:41:14.582Z,75.83
2018-12-24T01:43:39.079Z,76.87
2018-12-24T01:46:03.572Z,76.36
2018-12-24T01:48:28.340Z,76.42
2018-12-24T01:50:58.686Z,76.72
2018-12-24T01:53:23.180Z,76.50
2018-12-24T01:55:47.672Z,77.11
2018-12-24T01:58:12.161Z,76.48
2018-12-24T02:00:36.661Z,77.56
2018-12-24T02:03:01.163Z,76.82
2018-12-24T02:05:25.675Z,76.31
2018-12-24T02:07:50.146Z,76.34
2018-12-24T02:10:14.642Z,75.68
2018-12-24T02:12:42.410Z,75.20
2018-12-24T02:15:10.771Z,74.73
2018-12-24T02:17:35.255Z,74.69
2018-12-24T02:19:59.751Z,75.58
2018-12-24T02:22:24.242Z,75.23
2018-12-24T02:24:48.725Z,75.10
2018-12-24T02:27:19.129Z,74.85
2018-12-24T02:29:43.602Z,74.53
2018-12-24T02:32:08.096Z,74.94
2018-12-24T02:34:32.644Z,74.16
2018-12-24T02:36:57.116Z,73.61
2018-12-24T02:39:21.617Z,73.55
2018-12-24T02:41:46.117Z,73.06
2018-12-24T02:44:10.600Z,73.68
2018-12-24T02:46:35.086Z,74.20
2018-12-24T02:48:59.637Z,74.43
2018-12-24T02:51:24.135Z,74.06
2018-12-24T02:53:48.635Z,74.46
2018-12-24T02:56:13.133Z,72.82
2018-12-24T02:58:37.622Z,73.17
2018-12-24T03:01:02.127Z,74.33
2018-12-24T03:03:26.607Z,74.23
2018-12-24T03:05:51.107Z,73.74
2018-12-24T03:08:15.588Z,73.66
2018-12-24T03:10:40.094Z,73.37
2018-12-24T03:13:04.565Z,73.82
2018-12-24T03:15:29.063Z,73.82
2018-12-24T03:17:53.527Z,73.71
2018-12-24T03:20:18.100Z,73.06
2018-12-24T03:22:42.587Z,74.17
2018-12-24T03:25:07.143Z,74.26
2018-12-24T03:27:31.656Z,74.06
2018-12-24T03:29:56.145Z,73.83
2018-12-24T03:32:20.641Z,72.57
2018-12-24T03:34:45.131Z,71.83
2018-12-24T03:37:09.648Z,72.23
2018-12-24T03:39:34.137Z,73.11
2018-12-24T03:41:58.617Z,71.52
2018-12-24T03:44:23.090Z,72.18
2018-12-24T03:49:23.276Z,71.60
2018-12-24T03:54:23.760Z,71.50
2018-12-24T03:56:48.247Z,72.12
2018-12-24T03:59:12.730Z,73.07
2018-12-24T04:01:37.220Z,73.80
2018-12-24T04:04:01.758Z,72.05
2018-12-24T04:06:26.240Z,72.40
2018-12-24T04:08:50.753Z,72.23
2018-12-24T04:11:15.244Z,72.34
2018-12-24T04:13:45.177Z,72.57
2018-12-24T04:16:09.667Z,73.11
2018-12-24T04:18:34.439Z,72.17
2018-12-24T04:20:58.913Z,72.12
2018-12-24T04:23:23.400Z,71.66
2018-12-24T04:25:47.910Z,71.75
2018-12-24T04:28:12.393Z,71.83
2018-12-24T04:30:36.879Z,70.64
2018-12-24T04:33:06.590Z,71.72
2018-12-24T04:35:31.089Z,72.51
2018-12-24T04:37:55.562Z,73.06
2018-12-24T04:40:20.068Z,73.69
2018-12-24T04:42:44.544Z,72.90
2018-12-24T04:45:14.577Z,73.81
2018-12-24T04:47:39.059Z,73.05
2018-12-24T04:50:08.786Z,72.13
2018-12-24T04:52:33.273Z,72.29
2018-12-24T04:54:57.755Z,73.91
2018-12-24T04:57:28.207Z,73.80
2018-12-24T04:59:52.667Z,73.59
2018-12-24T05:02:17.171Z,72.41
2018-12-24T05:04:41.651Z,72.16
2018-12-24T05:07:06.153Z,73.63
2018-12-24T05:09:30.626Z,73.49
2018-12-24T05:11:55.138Z,73.74
2018-12-24T05:14:19.626Z,74.00
2018-12-24T05:19:20.755Z,75.56
2018-12-24T05:21:57.479Z,74.56
2018-12-24T05:24:21.985Z,75.73
2018-12-24T05:26:46.475Z,74.44
2018-12-24T05:29:10.956Z,74.95
2018-12-24T05:31:35.451Z,73.90
2018-12-24T05:34:00.049Z,74.09
2018-12-24T05:36:24.492Z,73.96
2018-12-24T05:38:49.028Z,73.86
2018-12-24T05:41:13.516Z,74.23
2018-12-24T05:43:38.014Z,74.77
2018-12-24T05:46:02.503Z,74.80
2018-12-24T05:48:26.980Z,73.70
2018-12-24T05:50:51.475Z,73.48
2018-12-24T05:53:15.966Z,72.44
2018-12-24T05:55:45.781Z,72.56
2018-12-24T05:58:10.280Z,72.24
2018-12-24T06:00:40.596Z,72.77
2018-12-24T06:03:10.239Z,72.37
2018-12-24T06:05:34.736Z,71.81
2018-12-24T06:07:59.206Z,71.50
2018-12-24T06:10:23.728Z,73.00
2018-12-24T06:12:53.409Z,71.31
2018-12-24T06:15:17.895Z,72.97
2018-12-24T06:17:42.392Z,72.50
2018-12-24T06:20:06.934Z,71.71
2018-12-24T06:22:31.435Z,73.23
2018-12-24T06:24:55.916Z,72.26
2018-12-24T06:27:20.419Z,72.51
2018-12-24T06:29:44.903Z,73.03
2018-12-24T06:32:09.450Z,72.47
2018-12-24T06:34:33.887Z,73.19
2018-12-24T06:36:58.396Z,72.58
2018-12-24T06:39:22.865Z,73.92
2018-12-24T06:41:47.346Z,72.83
2018-12-24T06:44:11.842Z,73.54
2018-12-24T06:46:36.333Z,72.96
2018-12-24T06:49:00.824Z,72.57
2018-12-24T06:51:31.472Z,73.53
2018-12-24T06:53:55.982Z,73.00
2018-12-24T06:56:20.478Z,73.65
2018-12-24T06:58:50.211Z,75.26
2018-12-24T07:01:14.666Z,72.79
2018-12-24T07:03:44.428Z,73.43
2018-12-24T07:06:08.916Z,73.38
2018-12-24T07:08:33.403Z,72.40
2018-12-24T07:10:57.911Z,72.63
2018-12-24T07:13:22.398Z,72.10
2018-12-24T07:15:46.900Z,73.06
2018-12-24T07:20:47.058Z,72.73
2018-12-24T07:23:11.559Z,72.15
2018-12-24T07:25:36.075Z,71.69
2018-12-24T07:28:00.560Z,71.50
2018-12-24T07:30:25.065Z,71.14
2018-12-24T07:32:49.568Z,71.84
2018-12-24T07:35:14.040Z,71.78
2018-12-24T07:37:38.554Z,71.58
2018-12-24T07:40:03.051Z,71.52
2018-12-24T07:42:33.731Z,71.13
2018-12-24T07:44:58.209Z,71.96
2018-12-24T07:47:22.707Z,71.38
2018-12-24T07:49:47.197Z,71.25
2018-12-24T07:52:11.687Z,71.84
2018-12-24T07:54:36.178Z,71.41
2018-12-24T07:57:00.685Z,70.78
2018-12-24T07:59:25.151Z,71.44
2018-12-24T08:01:49.635Z,72.03
2018-12-24T08:04:14.143Z,73.05
2018-12-24T08:06:38.624Z,71.71
2018-12-24T08:09:03.302Z,72.77
2018-12-24T08:11:27.795Z,71.72
2018-12-24T08:13:52.303Z,71.24
2018-12-24T08:16:22.622Z,73.04
2018-12-24T08:18:52.348Z,73.62
2018-12-24T08:21:36.105Z,72.87
2018-12-24T08:24:00.596Z,73.92
2018-12-24T08:26:25.078Z,72.93
2018-12-24T08:28:49.591Z,72.01
2018-12-24T08:31:14.068Z,71.25
2018-12-24T08:33:38.559Z,72.20
2018-12-24T08:36:03.128Z,71.23
2018-12-24T08:38:27.608Z,70.93
2018-12-24T08:40:52.119Z,70.69
2018-12-24T08:43:16.604Z,70.62
2018-12-24T08:45:41.099Z,70.91
2018-12-24T08:48:05.592Z,70.85
2018-12-24T08:50:30.104Z,70.96
2018-12-24T08:52:54.595Z,68.96
2018-12-24T08:55:19.129Z,69.20
2018-12-24T08:57:43.606Z,68.46
2018-12-24T09:00:08.099Z,68.37
2018-12-24T09:02:32.604Z,67.69
2018-12-24T09:04:57.089Z,68.21
2018-12-24T09:07:21.587Z,66.96
2018-12-24T09:09:46.077Z,66.84
2018-12-24T09:12:10.579Z,66.35
2018-12-24T09:14:35.063Z,65.98
2018-12-24T09:16:59.547Z,66.01
2018-12-24T09:19:24.035Z,65.22
2018-12-24T09:21:54.750Z,65.03
2018-12-24T09:24:19.241Z,65.33
2018-12-24T09:26:43.723Z,64.94
2018-12-24T09:29:08.237Z,64.14
2018-12-24T09:31:32.727Z,63.44
2018-12-24T09:34:03.069Z,63.47
2018-12-24T09:36:32.863Z,63.29
2018-12-24T09:38:57.351Z,62.91
2018-12-24T09:41:21.916Z,63.62
2018-12-24T09:43:46.413Z,63.20
2018-12-24T09:46:10.887Z,63.65
2018-12-24T09:48:35.449Z,63.01
2018-12-24T09:51:12.256Z,63.18
2018-12-24T09:53:36.775Z,63.97
2018-12-24T09:56:01.325Z,63.11
2018-12-24T09:58:25.837Z,63.30
2018-12-24T10:00:50.329Z,65.84
2018-12-24T10:03:15.148Z,65.33
2018-12-24T10:05:39.652Z,64.76
2018-12-24T10:08:24.928Z,65.91
2018-12-24T10:10:49.433Z,65.27
2018-12-24T10:13:13.916Z,63.74
2018-12-24T10:15:38.412Z,63.39
2018-12-24T10:18:02.944Z,64.60
2018-12-24T10:20:27.437Z,66.16
2018-12-24T10:22:51.932Z,68.10
2018-12-24T10:25:16.403Z,67.12
2018-12-24T10:27:40.967Z,68.88
2018-12-24T10:30:26.239Z,68.30
2018-12-24T10:32:50.790Z,69.31
2018-12-24T10:35:15.261Z,68.93
2018-12-24T10:37:39.754Z,69.07
2018-12-24T10:43:06.789Z,70.20
2018-12-24T10:48:07.551Z,70.97
2018-12-24T10:50:32.066Z,68.25
2018-12-24T10:52:56.554Z,68.55
2018-12-24T10:55:21.092Z,69.89
2018-12-24T10:57:45.572Z,71.63
2018-12-24T11:03:06.756Z,70.91
2018-12-24T11:05:31.302Z,73.08
2018-12-24T11:07:55.810Z,70.71
2018-12-24T11:10:20.292Z,69.77
2018-12-24T11:12:45.115Z,72.46
2018-12-24T11:15:10.166Z,70.41
2018-12-24T11:17:34.689Z,70.24
2018-12-24T11:19:59.173Z,69.50
2018-12-24T11:22:23.668Z,70.62
2018-12-24T11:24:48.152Z,69.64
2018-12-24T11:27:12.666Z,71.80
2018-12-24T11:29:37.149Z,71.60
2018-12-24T11:32:01.621Z,72.20
2018-12-24T11:34:26.128Z,71.73
2018-12-24T11:36:56.745Z,72.33
2018-12-24T11:39:21.255Z,72.09
2018-12-24T11:41:45.769Z,72.35
2018-12-24T11:46:51.272Z,73.52
2018-12-24T11:49:27.848Z,73.71
2018-12-24T11:51:52.341Z,71.77
2018-12-24T11:54:16.848Z,74.00
2018-12-24T11:56:41.316Z,74.79
2018-12-24T11:59:05.842Z,71.51
2018-12-24T12:01:42.476Z,68.87
2018-12-24T12:04:06.993Z,61.65
2018-12-24T12:06:31.469Z,69.20
2018-12-24T12:08:55.959Z,71.20
2018-12-24T12:11:20.477Z,73.10
2018-12-24T12:13:44.960Z,71.37
2018-12-24T12:16:09.468Z,71.52
2018-12-24T12:18:33.965Z,70.67
2018-12-24T12:20:58.477Z,66.24
2018-12-24T12:23:22.953Z,66.98
2018-12-24T12:25:53.432Z,68.96
2018-12-24T12:28:17.916Z,68.90
2018-12-24T12:30:42.432Z,68.51
2018-12-24T12:33:06.936Z,68.80
2018-12-24T12:35:31.402Z,70.03
2018-12-24T12:43:08.234Z,71.99
2018-12-24T12:45:51.179Z,69.26
2018-12-24T12:48:11.083Z,70.29
2018-12-24T12:50:35.570Z,70.48
2018-12-24T12:53:00.101Z,70.87
2018-12-24T12:55:24.579Z,72.27
2018-12-24T12:57:49.111Z,72.07
2018-12-24T13:00:13.611Z,73.75
2018-12-24T13:02:38.190Z,73.16
2018-12-24T13:05:02.690Z,70.94
2018-12-24T13:07:27.199Z,73.54
2018-12-24T13:09:51.697Z,74.16
2018-12-24T13:12:16.205Z,73.56
2018-12-24T13:14:40.811Z,72.40
2018-12-24T13:17:05.309Z,71.29
2018-12-24T13:19:29.825Z,72.68
2018-12-24T13:21:54.358Z,74.21
2018-12-24T13:24:18.859Z,73.74
2018-12-24T13:26:43.670Z,74.86
2018-12-24T13:29:08.117Z,74.90
2018-12-24T13:31:32.622Z,74.86
2018-12-24T13:33:57.116Z,73.71
2018-12-24T13:36:21.627Z,73.31
2018-12-24T13:38:46.115Z,73.82
2018-12-24T13:41:10.627Z,73.32
2018-12-24T13:43:35.379Z,74.13
2018-12-24T13:46:07.872Z,74.18
2018-12-24T13:49:12.756Z,73.69
2018-12-24T13:51:37.471Z,74.09
2018-12-24T13:54:01.852Z,74.32
2018-12-24T13:56:31.528Z,73.48
2018-12-24T13:58:55.908Z,72.44
2018-12-24T14:01:20.366Z,72.54
2018-12-24T14:03:44.769Z,72.98
2018-12-24T14:06:09.150Z,72.43
2018-12-24T14:08:33.580Z,72.64
2018-12-24T14:10:57.977Z,71.99
2018-12-24T14:13:22.379Z,72.25
2018-12-24T14:15:46.750Z,72.83
2018-12-24T14:18:11.165Z,72.62
2018-12-24T14:20:35.569Z,73.81
2018-12-24T14:22:59.967Z,74.54
2018-12-24T14:25:24.355Z,74.76
2018-12-24T14:27:48.742Z,75.08
2018-12-24T14:32:49.462Z,75.13
2018-12-24T14:35:13.889Z,74.31
2018-12-24T14:37:38.266Z,75.13
2018-12-24T14:40:02.683Z,75.11
2018-12-24T14:42:27.079Z,75.23
2018-12-24T14:44:51.487Z,75.50
2018-12-24T14:47:15.902Z,76.28
2018-12-24T14:49:40.297Z,75.97
2018-12-24T14:52:04.764Z,75.77
2018-12-24T14:54:29.157Z,75.55
2018-12-24T14:56:53.567Z,75.78
2018-12-24T14:59:19.261Z,76.65
2018-12-24T15:01:49.756Z,76.55
2018-12-24T15:04:14.149Z,76.61
2018-12-24T15:06:38.535Z,76.37
2018-12-24T15:11:38.445Z,76.55
2018-12-24T15:14:02.835Z,76.00
2018-12-24T15:16:33.841Z,76.16
2018-12-24T15:19:02.275Z,76.06
2018-12-24T15:21:26.699Z,75.61
2018-12-24T15:23:51.077Z,75.70
2018-12-24T15:26:15.502Z,75.85
2018-12-24T15:28:39.918Z,75.69
2018-12-24T15:31:04.298Z,76.07
2018-12-24T15:33:28.764Z,75.65
2018-12-24T15:35:53.131Z,75.96
2018-12-24T15:38:17.540Z,76.15
2018-12-24T15:40:41.918Z,75.81
2018-12-24T15:43:06.325Z,76.06
2018-12-24T15:45:30.706Z,76.30
2018-12-24T15:47:55.190Z,75.76
2018-12-24T15:50:19.570Z,75.77
2018-12-24T15:52:43.980Z,75.59
2018-12-24T15:55:08.416Z,76.03
2018-12-24T15:57:32.816Z,76.30
2018-12-24T15:59:57.224Z,76.50
2018-12-24T16:02:21.622Z,76.47
2018-12-24T16:04:46.027Z,76.63
2018-12-24T16:07:10.414Z,76.21
2018-12-24T16:09:34.830Z,76.17
2018-12-24T16:11:59.226Z,75.68
2018-12-24T16:14:23.653Z,75.81
2018-12-24T16:16:51.171Z,75.22
2018-12-24T16:19:23.113Z,75.54
2018-12-24T16:21:47.531Z,75.39
2018-12-24T16:24:11.904Z,75.31
2018-12-24T16:26:36.301Z,75.56
2018-12-24T16:29:00.725Z,76.17
2018-12-24T16:31:25.113Z,76.08
2018-12-24T16:33:49.532Z,76.17
2018-12-24T16:36:13.922Z,76.19
2018-12-24T16:38:38.312Z,76.43
2018-12-24T16:41:02.694Z,76.97
2018-12-24T16:43:27.096Z,77.15
2018-12-24T16:45:51.522Z,77.19
2018-12-24T16:48:15.916Z,76.47
2018-12-24T16:50:40.513Z,76.94
2018-12-24T16:53:04.896Z,76.85
2018-12-24T16:55:41.657Z,77.10
2018-12-24T16:58:06.031Z,76.98
2018-12-24T17:00:30.437Z,76.63
2018-12-24T17:02:54.839Z,76.21
2018-12-24T17:05:19.310Z,76.26
2018-12-24T17:07:43.683Z,76.95
2018-12-24T17:13:04.821Z,77.33
2018-12-24T17:15:29.216Z,77.24
2018-12-24T17:17:53.615Z,77.41
2018-12-24T17:20:17.979Z,77.92
2018-12-24T17:22:42.381Z,78.12
2018-12-24T17:25:06.757Z,77.89
2018-12-24T17:27:31.162Z,77.89
2018-12-24T17:29:55.528Z,78.22
2018-12-24T17:32:19.980Z,77.99
2018-12-24T17:34:44.353Z,78.44
2018-12-24T17:37:08.744Z,78.61
2018-12-24T17:39:33.144Z,78.83
2018-12-24T17:41:57.537Z,78.62
2018-12-24T17:44:21.934Z,78.64
2018-12-24T17:46:46.325Z,78.76
2018-12-24T17:49:10.746Z,78.65
2018-12-24T17:51:35.119Z,78.70
2018-12-24T17:53:59.497Z,78.53
2018-12-24T17:56:23.883Z,78.99
2018-12-24T17:58:48.289Z,78.58
2018-12-24T18:01:12.715Z,78.31
2018-12-24T18:03:37.107Z,79.19
2018-12-24T18:06:01.525Z,79.33
2018-12-24T18:08:38.513Z,79.22
2018-12-24T18:11:02.907Z,79.05
2018-12-24T18:13:27.280Z,79.28
2018-12-24T18:15:51.713Z,79.29
2018-12-24T18:18:16.085Z,79.53
2018-12-24T18:20:40.471Z,79.19
2018-12-24T18:23:04.863Z,79.44
2018-12-24T18:25:29.240Z,79.54
2018-12-24T18:27:53.649Z,79.59
2018-12-24T18:30:18.029Z,79.68
2018-12-24T18:32:42.408Z,79.84
2018-12-24T18:35:06.804Z,79.92
2018-12-24T18:37:31.217Z,79.08
2018-12-24T18:39:55.619Z,80.03
2018-12-24T18:42:20.029Z,80.13
2018-12-24T18:44:44.434Z,79.77
2018-12-24T18:47:08.852Z,80.54
2018-12-24T18:49:33.247Z,80.97
2018-12-24T18:51:57.619Z,80.70
2018-12-24T18:54:22.039Z,80.73
2018-12-24T18:56:46.426Z,81.70
2018-12-24T19:01:46.953Z,82.15
2018-12-24T19:04:11.352Z,82.01
2018-12-24T19:06:35.738Z,82.08
2018-12-24T19:09:00.159Z,82.93
2018-12-24T19:11:24.554Z,81.99
2018-12-24T19:13:48.956Z,82.70
2018-12-24T19:16:13.366Z,83.02
2018-12-24T19:18:37.739Z,82.88
2018-12-24T19:21:02.160Z,82.64
2018-12-24T19:23:26.534Z,81.92
2018-12-24T19:26:03.299Z,82.34
2018-12-24T19:28:27.683Z,82.05
2018-12-24T19:30:52.093Z,82.62
2018-12-24T19:33:16.481Z,82.72
2018-12-24T19:35:40.899Z,82.76
2018-12-24T19:38:05.312Z,82.99
2018-12-24T19:40:29.691Z,83.08
2018-12-24T19:42:54.113Z,83.12
2018-12-24T19:45:18.501Z,83.21
2018-12-24T19:47:49.834Z,82.89
2018-12-24T19:50:14.900Z,82.24
2018-12-24T19:52:39.298Z,82.67
2018-12-24T19:55:03.783Z,82.57
2018-12-24T19:57:28.174Z,82.76
2018-12-24T19:59:52.581Z,83.10
2018-12-24T20:04:53.219Z,83.35
2018-12-24T20:07:17.630Z,82.97
2018-12-24T20:09:42.037Z,83.49
2018-12-24T20:12:06.596Z,83.28
2018-12-24T20:14:31.008Z,83.51
2018-12-24T20:16:55.389Z,83.25
2018-12-24T20:19:19.815Z,83.12
2018-12-24T20:21:44.193Z,82.81
2018-12-24T20:24:08.586Z,81.92
2018-12-24T20:26:32.988Z,82.22
2018-12-24T20:28:57.405Z,82.52
2018-12-24T20:31:21.801Z,82.09
2018-12-24T20:33:46.175Z,82.11
2018-12-24T20:36:10.583Z,82.70
2018-12-24T20:38:37.214Z,82.10
2018-12-24T20:41:06.642Z,82.60
2018-12-24T20:43:31.043Z,82.02
2018-12-24T20:45:55.476Z,82.34
2018-12-24T20:48:19.854Z,82.70
2018-12-24T20:50:44.258Z,82.12
2018-12-24T20:53:08.636Z,82.67
2018-12-24T20:55:33.149Z,82.53
2018-12-24T20:57:57.541Z,82.38
2018-12-24T21:00:21.939Z,82.57
2018-12-24T21:02:46.363Z,82.28
2018-12-24T21:05:10.753Z,81.73
2018-12-24T21:07:35.181Z,81.96
2018-12-24T21:09:59.589Z,81.84
2018-12-24T21:12:23.996Z,82.14
2018-12-24T21:14:48.380Z,81.91
2018-12-24T21:17:12.797Z,81.79
2018-12-24T21:19:37.185Z,81.94
2018-12-24T21:22:01.679Z,82.37
2018-12-24T21:24:26.081Z,82.64
2018-12-24T21:26:50.500Z,82.42
2018-12-24T21:29:14.910Z,82.38
2018-12-24T21:31:39.342Z,82.54
2018-12-24T21:34:03.757Z,82.34
2018-12-24T21:36:28.162Z,82.79
2018-12-24T21:38:52.554Z,83.03
2018-12-24T21:41:16.956Z,83.18
2018-12-24T21:46:17.779Z,83.21
2018-12-24T21:48:42.205Z,82.77
2018-12-24T21:51:06.611Z,83.30
2018-12-24T21:53:30.991Z,83.47
2018-12-24T21:55:55.394Z,83.05
2018-12-24T21:58:19.772Z,82.92
2018-12-24T22:00:44.168Z,82.64
2018-12-24T22:03:08.546Z,82.39
2018-12-24T22:05:32.940Z,82.21
2018-12-24T22:07:57.306Z,82.27
2018-12-24T22:10:21.712Z,82.17
2018-12-24T22:12:52.006Z,81.75
2018-12-24T22:15:16.407Z,82.48
2018-12-24T22:17:40.808Z,82.80
2018-12-24T22:23:02.252Z,83.15
2018-12-24T22:25:26.677Z,83.33
2018-12-24T22:27:51.060Z,83.03
2018-12-24T22:30:15.454Z,83.11
2018-12-24T22:32:39.850Z,82.74
2018-12-24T22:35:04.464Z,82.88
2018-12-24T22:37:28.875Z,82.67
2018-12-24T22:39:53.252Z,82.72
2018-12-24T22:42:17.663Z,82.68
2018-12-24T22:44:42.039Z,82.60
2018-12-24T22:47:06.442Z,82.46
2018-12-24T22:49:30.857Z,82.49
2018-12-24T22:51:55.244Z,82.50
2018-12-24T22:54:19.654Z,82.79
2018-12-24T22:56:44.047Z,82.71
2018-12-24T22:59:08.455Z,82.28
2018-12-24T23:01:32.845Z,82.07
2018-12-24T23:03:57.266Z,82.12
2018-12-24T23:06:21.661Z,82.01
2018-12-24T23:08:46.080Z,81.96
2018-12-24T23:11:10.478Z,82.01
2018-12-24T23:16:11.254Z,81.77
2018-12-24T23:18:35.647Z,81.58
2018-12-24T23:21:00.047Z,81.50
2018-12-24T23:23:24.436Z,81.40
2018-12-24T23:25:48.843Z,81.16
2018-12-24T23:28:13.216Z,80.51
2018-12-24T23:30:37.631Z,80.61
2018-12-24T23:33:02.006Z,81.16
2018-12-24T23:35:26.429Z,80.63
2018-12-24T23:37:50.818Z,80.80
2018-12-24T23:40:15.215Z,80.70
2018-12-24T23:42:51.713Z,80.46
2018-12-24T23:45:16.092Z,80.68
2018-12-24T23:47:40.494Z,80.52
2018-12-24T23:50:04.959Z,81.05
2018-12-24T23:52:29.365Z,80.84
2018-12-24T23:54:53.759Z,80.00
2018-12-24T23:57:18.184Z,80.79
2018-12-24T23:59:42.579Z,81.12
